This is the latest recevied weather packets stored in our database for station/object W5HKR. If no packets are shown the sender has not sent any weather packets the latest 10 day(s).
| Time | Temp. | Humidity | Pressure | Rain* | Wind** | Luminosity | Snow |
|---|---|---|---|---|---|---|---|
| 1777545204 | 18.33° C | 91% | 990.6 hPa | 0 mm | - | - | - |
| 1777544903 | 18.33° C | 91% | 990.6 hPa | 0 mm | - | - | - |
| 1777544603 | 18.33° C | 91% | 990.6 hPa | 0 mm | - | - | - |
| 1777544302 | 16.67° C | 94% | 982.1 hPa | 0 mm | - | - | - |
| 1777544003 | 16.67° C | 94% | 982.1 hPa | 0 mm | - | - | - |
| 1777543835 | 18.33° C | 91% | 990.6 hPa | 0 mm | - | - | - |
| 1777543704 | 16.67° C | 94% | 982.3 hPa | 0 mm | - | - | - |
| 1777543403 | 16.67° C | 94% | 981.9 hPa | 0 mm | - | - | - |
| 1777543102 | 18.33° C | 91% | 990.6 hPa | 0 mm | - | - | - |
| 1777542803 | 16.67° C | 94% | 983.4 hPa | 0 mm | - | - | - |
| 1777542754 | 18.33° C | 91% | 990.6 hPa | 0 mm | - | - | - |
| 1777542503 | 18.33° C | 91% | 990.6 hPa | 0 mm | - | - | - |
| 1777542204 | 16.67° C | 94% | 983.4 hPa | 0 mm | - | - | - |
| 1777541903 | 17.22° C | 94% | 982.8 hPa | 0 mm | - | - | - |
| 1777541675 | 18.33° C | 91% | 990.6 hPa | 0 mm | - | - | - |
| 1777541604 | 18.33° C | 91% | 990.6 hPa | 0 mm | - | - | - |
| 1777541304 | 18.33° C | 91% | 990.6 hPa | 0 mm | - | - | - |
| 1777541003 | 18.33° C | 91% | 990.6 hPa | 0 mm | - | - | - |
| 1777540703 | 17.22° C | 93% | 983.1 hPa | 0 mm | - | - | - |
| 1777540595 | 17.22° C | 93% | 983.1 hPa | 0 mm | - | - | - |
| 1777540402 | 18.33° C | 91% | 990.6 hPa | 0 mm | - | - | - |
| 1777540103 | 18.33° C | 91% | 990.6 hPa | 0 mm | - | - | - |
| 1777539802 | 18.33° C | 91% | 990.6 hPa | 0 mm | - | - | - |
| 1777539503 | 17.22° C | 92% | 984.1 hPa | 0 mm | - | - | - |
| 1777539204 | 17.22° C | 92% | 985 hPa | 0 mm | - | - | - |
* Rain latest hour (hover to see other rain measurements)
** Current wind speed in m/s (hover to see current wind gust speed)